Time;durP1;ratioP1;P1;durP2;ratioP2;P2;SDS_P1;SDS_P2;PMS_P1;PMS_P2;Temp;Humidity;BMP_temperature;BMP_pressure;BME280_temperature;BME280_humidity;BME280_pressure;Samples;Min_cycle;Max_cycle;Signal;HPM_P1;HPM_P2
2022/06/17 00:01:40;;;;;;;18.58;14.98;;;15.70;99.90;;;;;;4930969;28;20066;-58
2022/06/17 00:04:06;;;;;;;18.15;16.25;;;15.70;99.90;;;;;;4939299;28;20234;-58
2022/06/17 00:07:07;;;;;;;16.55;14.75;;;15.70;99.90;;;;;;4930103;28;20081;-58
2022/06/17 00:09:35;;;;;;;18.30;14.30;;;15.70;99.90;;;;;;4881978;28;20984;-58
2022/06/17 00:12:04;;;;;;;15.05;13.38;;;15.70;99.90;;;;;;4925418;28;20034;-58
2022/06/17 00:15:11;;;;;;;18.70;15.80;;;15.70;99.90;;;;;;4943260;28;20560;-59
2022/06/17 00:17:19;;;;;;;18.42;13.82;;;15.70;99.90;;;;;;4941288;28;20125;-58
2022/06/17 00:19:44;;;;;;;20.77;15.90;;;15.60;99.90;;;;;;4958106;28;20042;-58
2022/06/17 00:22:11;;;;;;;17.85;16.00;;;15.60;99.90;;;;;;4954513;28;20034;-58
2022/06/17 00:24:37;;;;;;;14.40;11.43;;;15.60;99.90;;;;;;4975076;23;20051;-58
2022/06/17 00:27:03;;;;;;;17.58;15.73;;;15.60;99.90;;;;;;4961956;28;20042;-58
2022/06/17 00:29:30;;;;;;;15.27;13.68;;;15.60;99.90;;;;;;4960279;28;20389;-57
2022/06/17 00:31:57;;;;;;;19.65;15.18;;;15.60;99.90;;;;;;4962075;28;20046;-57
2022/06/17 00:34:23;;;;;;;17.75;15.85;;;15.60;99.90;;;;;;4967686;28;20051;-59
2022/06/17 00:37:00;;;;;;;18.73;14.40;;;15.60;99.90;;;;;;4972746;28;20290;-59
2022/06/17 00:39:29;;;;;;;17.85;14.05;;;15.60;99.90;;;;;;4972265;28;20045;-59
2022/06/17 00:42:03;;;;;;;15.80;12.77;;;15.50;99.90;;;;;;4977134;28;20400;-59
2022/06/17 00:44:48;;;;;;;12.68;10.95;;;15.50;99.90;;;;;;4966264;28;20046;-59
2022/06/17 00:47:35;;;;;;;16.85;15.15;;;15.60;99.90;;;;;;4963656;28;20104;-59
2022/06/17 00:50:22;;;;;;;14.60;12.18;;;15.60;99.90;;;;;;4962003;28;21919;-58
2022/06/17 00:52:59;;;;;;;14.13;12.45;;;15.60;99.90;;;;;;4964340;28;20140;-58
2022/06/17 00:55:42;;;;;;;15.55;13.45;;;15.60;99.90;;;;;;4962993;28;20038;-58
2022/06/17 00:58:25;;;;;;;18.47;15.43;;;15.60;99.90;;;;;;4964809;28;20405;-59
2022/06/17 01:00:57;;;;;;;17.42;15.40;;;15.60;99.90;;;;;;4943042;28;20313;-58
2022/06/17 01:03:32;;;;;;;15.52;11.23;;;15.60;99.90;;;;;;4962134;28;20073;-58
2022/06/17 01:06:14;;;;;;;14.77;13.20;;;15.60;99.90;;;;;;4944804;28;20048;-59
2022/06/17 01:12:08;;;;;;;21.35;15.18;;;15.60;99.90;;;;;;4929184;28;20058;-59
2022/06/17 01:14:35;;;;;;;15.15;13.43;;;15.60;99.90;;;;;;4965161;28;20053;-59
2022/06/17 01:17:02;;;;;;;13.75;12.35;;;15.60;99.90;;;;;;4942795;28;20755;-59
2022/06/17 01:19:32;;;;;;;17.98;14.20;;;15.60;99.90;;;;;;4963294;28;20054;-58
2022/06/17 01:22:10;;;;;;;16.10;13.77;;;15.50;99.90;;;;;;4962111;28;20117;-59
2022/06/17 01:24:36;;;;;;;17.10;12.70;;;15.60;99.90;;;;;;4959765;28;20107;-59
2022/06/17 01:27:02;;;;;;;15.55;12.68;;;15.50;99.90;;;;;;4952200;28;20196;-59
2022/06/17 01:29:29;;;;;;;16.98;12.60;;;15.50;99.90;;;;;;4967046;28;20116;-60
2022/06/17 01:31:55;;;;;;;16.23;12.55;;;15.50;99.90;;;;;;4953158;28;20042;-59
2022/06/17 01:34:21;;;;;;;14.77;13.27;;;15.50;99.90;;;;;;4963642;28;20440;-59
2022/06/17 01:36:48;;;;;;;13.15;11.52;;;15.50;99.90;;;;;;4969936;28;20046;-59
2022/06/17 01:39:16;;;;;;;13.60;11.02;;;15.40;99.90;;;;;;4967098;28;20065;-60
2022/06/17 01:41:43;;;;;;;12.73;11.30;;;15.40;99.90;;;;;;4976292;28;20056;-60
2022/06/17 01:44:15;;;;;;;13.05;11.07;;;15.40;99.90;;;;;;4989817;28;20038;-59
2022/06/17 01:46:44;;;;;;;11.77;10.18;;;15.30;99.90;;;;;;4972748;28;20038;-60
2022/06/17 01:49:19;;;;;;;16.08;10.60;;;15.30;99.90;;;;;;4959667;28;20050;-59
2022/06/17 01:51:50;;;;;;;12.85;10.98;;;15.30;99.90;;;;;;4961327;28;20059;-59
2022/06/17 01:54:21;;;;;;;11.60;9.82;;;15.30;99.90;;;;;;4946362;28;20058;-60
2022/06/17 01:56:51;;;;;;;14.52;11.45;;;15.30;99.90;;;;;;4964411;28;20050;-59
2022/06/17 01:59:22;;;;;;;14.60;10.35;;;15.30;99.90;;;;;;4973490;28;20109;-60
2022/06/17 02:01:50;;;;;;;12.85;10.70;;;15.30;99.90;;;;;;4971485;28;20141;-59
2022/06/17 02:04:26;;;;;;;14.02;10.70;;;15.30;99.90;;;;;;4967650;28;21039;-59
2022/06/17 02:07:07;;;;;;;13.98;9.50;;;15.30;99.90;;;;;;4962292;28;20047;-59
2022/06/17 02:09:33;;;;;;;11.48;10.25;;;15.30;99.90;;;;;;4968252;28;20453;-60
2022/06/17 02:12:01;;;;;;;13.60;10.18;;;15.20;99.90;;;;;;4968104;28;20049;-59
2022/06/17 02:14:28;;;;;;;14.13;9.10;;;15.20;99.90;;;;;;4975205;28;20054;-59
2022/06/17 02:16:54;;;;;;;11.82;8.75;;;15.20;99.90;;;;;;4973189;28;20504;-59
2022/06/17 02:19:23;;;;;;;12.85;9.23;;;15.20;99.90;;;;;;4987160;28;21598;-59
2022/06/17 02:22:13;;;;;;;11.88;10.27;;;15.20;99.90;;;;;;4961307;28;20046;-59
2022/06/17 02:24:40;;;;;;;12.40;9.20;;;15.20;99.90;;;;;;4988182;28;20065;-59
2022/06/17 02:27:09;;;;;;;13.07;9.15;;;15.10;99.90;;;;;;4966139;28;20121;-59
2022/06/17 02:29:38;;;;;;;11.60;9.27;;;15.10;99.90;;;;;;4965709;28;20046;-59
2022/06/17 02:32:07;;;;;;;13.10;9.30;;;15.10;99.90;;;;;;4964146;28;20293;-59
2022/06/17 02:34:33;;;;;;;8.80;7.90;;;15.10;99.90;;;;;;4979855;28;20089;-59
2022/06/17 02:37:08;;;;;;;10.13;8.80;;;15.10;99.90;;;;;;4980080;28;20061;-59
2022/06/17 02:39:37;;;;;;;10.10;8.20;;;15.10;99.90;;;;;;4962786;28;20057;-63
2022/06/17 02:42:03;;;;;;;10.38;9.02;;;15.10;99.90;;;;;;4963263;28;20049;-59
2022/06/17 02:44:36;;;;;;;12.10;7.90;;;15.10;99.90;;;;;;4965752;28;20047;-60
2022/06/17 02:47:03;;;;;;;11.35;8.45;;;15.10;99.90;;;;;;4945605;28;20165;-60
2022/06/17 02:49:33;;;;;;;11.73;8.30;;;15.20;99.90;;;;;;4970884;28;20100;-58
2022/06/17 02:52:01;;;;;;;10.43;7.38;;;15.20;99.90;;;;;;4964414;28;20042;-60
2022/06/17 02:54:36;;;;;;;14.20;8.43;;;15.20;99.90;;;;;;4960823;28;20062;-59
2022/06/17 02:57:03;;;;;;;12.85;7.95;;;15.20;99.90;;;;;;4964397;28;20217;-60
2022/06/17 02:59:38;;;;;;;10.52;7.75;;;15.20;99.90;;;;;;4968294;28;20132;-59
2022/06/17 03:02:22;;;;;;;10.57;7.13;;;15.30;99.90;;;;;;4958358;28;20520;-59
2022/06/17 03:04:48;;;;;;;10.90;8.20;;;15.30;99.90;;;;;;4944095;28;20077;-59
2022/06/17 03:07:20;;;;;;;9.25;7.15;;;15.30;99.90;;;;;;4964442;28;20523;-59
2022/06/17 03:09:46;;;;;;;14.23;8.85;;;15.30;99.90;;;;;;4963376;28;20046;-60
2022/06/17 03:12:19;;;;;;;9.50;7.70;;;15.30;99.90;;;;;;4965523;28;20601;-60
2022/06/17 03:15:05;;;;;;;11.35;8.73;;;15.30;99.90;;;;;;4962216;28;20127;-60
2022/06/17 03:17:32;;;;;;;11.65;8.50;;;15.30;99.90;;;;;;4953458;28;20065;-59
2022/06/17 03:20:01;;;;;;;11.70;7.47;;;15.30;99.90;;;;;;4967885;28;20182;-61
2022/06/17 03:22:28;;;;;;;10.27;7.85;;;15.30;99.90;;;;;;4972128;28;20046;-59
2022/06/17 03:25:36;;;;;;;9.40;7.78;;;15.30;99.90;;;;;;4960988;28;20521;-59
2022/06/17 03:28:12;;;;;;;11.68;8.55;;;15.40;99.90;;;;;;4959790;28;20039;-60
2022/06/17 03:30:45;;;;;;;8.75;7.78;;;15.40;99.90;;;;;;4964185;28;20558;-60
2022/06/17 03:33:17;;;;;;;11.15;7.85;;;15.30;99.90;;;;;;4961089;28;20050;-59
2022/06/17 03:35:45;;;;;;;10.82;7.88;;;15.40;99.90;;;;;;4963941;28;20046;-59
2022/06/17 03:38:52;;;;;;;10.90;7.88;;;15.40;99.90;;;;;;4964813;28;20057;-59
2022/06/17 03:41:33;;;;;;;9.05;7.47;;;15.40;99.90;;;;;;4908029;29;20606;-59
2022/06/17 03:44:04;;;;;;;8.82;7.25;;;15.40;99.90;;;;;;4881066;29;20047;-59
2022/06/17 03:46:43;;;;;;;10.75;6.70;;;15.40;99.90;;;;;;4950360;28;20506;-60
2022/06/17 03:49:39;;;;;;;10.32;7.43;;;15.50;99.90;;;;;;4970586;28;21446;-59
2022/06/17 03:52:16;;;;;;;8.23;7.30;;;15.50;99.90;;;;;;4957761;28;20342;-60
2022/06/17 03:54:42;;;;;;;9.07;7.28;;;15.50;99.90;;;;;;4966067;28;20058;-59
2022/06/17 03:57:10;;;;;;;10.63;7.80;;;15.60;99.90;;;;;;4957255;28;20505;-59
2022/06/17 03:59:38;;;;;;;9.32;7.13;;;15.60;99.90;;;;;;4940569;28;20512;-60
2022/06/17 04:02:08;;;;;;;9.77;6.80;;;15.70;99.90;;;;;;4966075;28;20042;-59
2022/06/17 04:04:39;;;;;;;9.00;6.35;;;15.70;99.90;;;;;;4967277;28;20096;-60
2022/06/17 04:07:05;;;;;;;9.70;7.25;;;15.70;99.90;;;;;;4961951;28;20042;-60
2022/06/17 04:09:37;;;;;;;10.75;7.07;;;15.80;99.90;;;;;;4962410;28;20328;-59
2022/06/17 04:12:13;;;;;;;6.95;6.25;;;15.90;99.90;;;;;;4966841;28;20489;-59
2022/06/17 04:14:54;;;;;;;7.93;6.40;;;15.90;99.90;;;;;;4962514;28;20050;-59
2022/06/17 04:17:45;;;;;;;10.45;7.93;;;15.90;99.90;;;;;;4952659;28;20050;-60
2022/06/17 04:20:26;;;;;;;9.73;7.72;;;16.00;99.90;;;;;;4965584;28;20065;-60
2022/06/17 04:22:56;;;;;;;8.55;6.97;;;16.00;99.90;;;;;;4980267;28;20152;-60
2022/06/17 04:25:33;;;;;;;15.63;8.43;;;16.00;99.90;;;;;;4963265;28;20042;-60
2022/06/17 04:28:06;;;;;;;8.35;6.95;;;16.00;99.90;;;;;;4957421;28;20042;-59
2022/06/17 04:30:36;;;;;;;9.63;6.83;;;16.00;99.90;;;;;;4963262;28;20046;-60
2022/06/17 04:33:23;;;;;;;10.40;8.38;;;16.00;99.90;;;;;;4958926;28;20470;-60
2022/06/17 04:36:08;;;;;;;9.20;7.13;;;16.00;99.90;;;;;;4960591;28;20505;-60
2022/06/17 04:39:06;;;;;;;10.25;7.82;;;16.00;99.90;;;;;;4961348;28;20132;-60
2022/06/17 04:41:37;;;;;;;11.40;7.95;;;16.00;99.90;;;;;;4959202;28;20050;-60
2022/06/17 04:44:05;;;;;;;10.13;8.82;;;16.00;99.90;;;;;;4966057;28;21220;-59
2022/06/17 04:46:39;;;;;;;11.27;7.85;;;16.00;99.90;;;;;;4963280;28;20061;-60
2022/06/17 04:49:13;;;;;;;10.93;8.30;;;16.10;99.90;;;;;;4964699;28;20657;-60
2022/06/17 04:51:39;;;;;;;8.85;7.25;;;16.10;99.90;;;;;;4978329;28;20050;-59
2022/06/17 04:54:05;;;;;;;12.40;7.90;;;16.10;99.90;;;;;;4961906;28;21248;-60
2022/06/17 04:56:46;;;;;;;12.13;8.50;;;16.10;99.90;;;;;;4960783;28;20112;-60
2022/06/17 04:59:44;;;;;;;10.57;8.93;;;16.10;99.90;;;;;;4959692;28;20548;-60
2022/06/17 05:02:25;;;;;;;10.30;8.45;;;16.20;99.90;;;;;;4958693;28;20417;-60
2022/06/17 05:04:57;;;;;;;8.77;7.10;;;16.20;99.90;;;;;;4947583;28;20054;-60
2022/06/17 05:07:26;;;;;;;12.90;9.00;;;16.20;99.90;;;;;;4963685;28;20120;-59
2022/06/17 05:09:57;;;;;;;12.02;7.70;;;16.20;99.90;;;;;;4965434;28;20517;-59
2022/06/17 05:12:29;;;;;;;12.43;8.57;;;16.30;99.90;;;;;;4974201;28;20064;-60
2022/06/17 05:15:00;;;;;;;10.48;7.88;;;16.30;99.90;;;;;;4965513;28;20190;-60
2022/06/17 05:17:26;;;;;;;10.38;7.50;;;16.30;99.90;;;;;;4972470;28;20049;-59
2022/06/17 05:19:53;;;;;;;12.88;9.18;;;16.30;99.90;;;;;;4971853;28;20413;-59
2022/06/17 05:22:34;;;;;;;9.48;8.07;;;16.40;99.90;;;;;;4962251;28;20259;-60
2022/06/17 05:25:04;;;;;;;9.68;7.60;;;16.40;99.90;;;;;;4987214;28;20046;-62
2022/06/17 05:27:29;;;;;;;9.80;7.78;;;16.40;99.90;;;;;;4972256;28;23225;-60
2022/06/17 05:29:55;;;;;;;9.93;8.27;;;16.50;99.90;;;;;;4963149;28;20046;-61
2022/06/17 05:32:24;;;;;;;17.63;10.18;;;16.50;99.90;;;;;;4969397;28;20047;-61
2022/06/17 05:34:50;;;;;;;12.25;7.80;;;16.60;99.90;;;;;;4961237;28;20054;-62
2022/06/17 05:37:16;;;;;;;10.15;8.15;;;16.60;99.90;;;;;;4964779;28;20418;-59
2022/06/17 05:39:42;;;;;;;11.60;8.98;;;16.60;99.90;;;;;;4962597;28;20031;-60
2022/06/17 05:42:12;;;;;;;11.60;8.27;;;16.60;99.90;;;;;;4959122;28;20370;-61
2022/06/17 05:44:38;;;;;;;11.40;8.55;;;16.70;99.90;;;;;;4958784;28;20051;-62
2022/06/17 05:47:04;;;;;;;9.20;7.90;;;16.70;99.90;;;;;;4965407;28;20069;-60
2022/06/17 05:49:30;;;;;;;10.52;8.00;;;16.80;99.90;;;;;;4961652;28;20051;-61
2022/06/17 05:51:56;;;;;;;10.50;8.82;;;16.80;99.90;;;;;;4959376;28;20517;-63
2022/06/17 05:54:21;;;;;;;12.32;8.80;;;16.80;99.90;;;;;;4962685;28;20102;-61
2022/06/17 05:56:47;;;;;;;12.18;9.52;;;16.90;99.90;;;;;;4970579;28;20100;-58
2022/06/17 05:59:13;;;;;;;13.40;9.00;;;16.90;99.90;;;;;;4977853;28;20166;-61
2022/06/17 06:01:39;;;;;;;13.05;8.38;;;17.00;99.90;;;;;;4952182;28;20081;-61
2022/06/17 06:04:05;;;;;;;11.05;8.45;;;17.00;99.90;;;;;;4967101;28;20073;-60
2022/06/17 06:06:30;;;;;;;11.05;9.48;;;17.10;99.90;;;;;;4978100;28;20085;-62
2022/06/17 06:08:56;;;;;;;10.63;9.05;;;17.10;99.90;;;;;;4971576;28;20124;-61
2022/06/17 06:11:22;;;;;;;11.43;9.50;;;17.20;99.90;;;;;;4970392;28;21517;-63
2022/06/17 06:13:48;;;;;;;15.35;10.23;;;17.30;99.90;;;;;;4970049;28;20077;-61
2022/06/17 06:16:15;;;;;;;13.93;9.70;;;17.40;99.90;;;;;;4954263;28;20128;-62
2022/06/17 06:18:41;;;;;;;13.95;9.40;;;17.40;99.90;;;;;;4946011;28;20568;-63
2022/06/17 06:21:07;;;;;;;11.57;9.23;;;17.50;99.90;;;;;;4954662;28;20039;-62
2022/06/17 06:23:38;;;;;;;9.75;8.77;;;17.50;99.90;;;;;;4972578;28;20196;-62
2022/06/17 06:26:07;;;;;;;14.90;9.45;;;17.60;99.90;;;;;;5006719;23;20053;-61
2022/06/17 06:28:33;;;;;;;13.15;10.35;;;17.60;99.90;;;;;;5004370;28;20427;-61
2022/06/17 06:31:07;;;;;;;9.70;8.65;;;17.70;99.90;;;;;;4998558;28;20049;-60
2022/06/17 06:33:33;;;;;;;10.85;8.95;;;17.70;99.90;;;;;;4996967;28;20182;-61
2022/06/17 06:35:59;;;;;;;13.20;9.55;;;17.80;99.90;;;;;;4992665;28;20468;-59
2022/06/17 06:38:25;;;;;;;13.60;9.43;;;17.80;99.90;;;;;;4975533;28;20160;-60
2022/06/17 06:40:51;;;;;;;12.48;9.50;;;17.80;99.90;;;;;;4996935;28;20095;-59
2022/06/17 06:43:19;;;;;;;12.23;10.13;;;17.80;99.90;;;;;;4997548;28;20136;-60
2022/06/17 06:45:48;;;;;;;14.82;10.95;;;17.90;99.90;;;;;;5008335;28;20042;-61
2022/06/17 06:48:16;;;;;;;11.35;9.82;;;17.90;99.90;;;;;;4990612;28;20128;-61
2022/06/17 06:50:42;;;;;;;13.35;10.48;;;17.90;99.90;;;;;;4992476;28;20501;-59
2022/06/17 06:53:08;;;;;;;11.70;9.48;;;17.90;99.90;;;;;;4994612;28;20045;-60
2022/06/17 06:55:36;;;;;;;11.18;10.00;;;18.00;99.90;;;;;;4992675;28;20500;-59
2022/06/17 06:58:09;;;;;;;11.60;9.52;;;18.00;99.90;;;;;;4996123;28;20481;-61
2022/06/17 07:00:37;;;;;;;14.70;10.23;;;18.10;99.90;;;;;;4996595;28;20171;-62
2022/06/17 07:03:04;;;;;;;12.48;9.27;;;18.20;99.90;;;;;;4995243;28;20192;-60
2022/06/17 07:05:31;;;;;;;12.02;9.75;;;18.20;99.90;;;;;;4994527;28;20042;-60
2022/06/17 07:07:57;;;;;;;13.27;9.32;;;18.30;99.90;;;;;;4977747;28;20042;-61
2022/06/17 07:10:27;;;;;;;15.35;10.60;;;18.40;99.90;;;;;;4999277;28;20042;-62
2022/06/17 07:12:54;;;;;;;13.20;9.85;;;18.60;99.90;;;;;;5000433;28;20042;-62
2022/06/17 07:15:20;;;;;;;14.65;10.45;;;18.70;99.90;;;;;;4998447;28;20053;-61
2022/06/17 07:17:57;;;;;;;11.10;10.00;;;18.90;99.90;;;;;;4993793;28;20049;-60
2022/06/17 07:20:24;;;;;;;12.60;9.95;;;19.10;99.90;;;;;;4987296;28;20046;-59
2022/06/17 07:22:51;;;;;;;12.07;9.75;;;19.10;99.90;;;;;;4996822;28;20416;-61
2022/06/17 07:25:18;;;;;;;10.95;9.40;;;19.30;99.90;;;;;;4996961;28;20049;-61
2022/06/17 07:27:44;;;;;;;12.65;9.68;;;19.30;99.90;;;;;;4971449;28;20492;-57
2022/06/17 07:30:20;;;;;;;15.73;10.20;;;19.30;99.90;;;;;;4998871;28;20050;-59
2022/06/17 07:32:47;;;;;;;14.07;10.40;;;19.30;99.90;;;;;;4982950;28;20106;-59
2022/06/17 07:35:14;;;;;;;13.32;9.73;;;19.40;99.90;;;;;;4984392;28;20507;-61
2022/06/17 07:40:24;;;;;;;11.95;9.63;;;19.50;99.90;;;;;;4987051;28;20042;-61
2022/06/17 07:42:50;;;;;;;13.70;10.38;;;19.60;99.90;;;;;;5006248;28;20049;-62
2022/06/17 07:45:18;;;;;;;12.27;9.27;;;19.70;99.90;;;;;;4994968;28;20133;-58
2022/06/17 07:47:48;;;;;;;11.75;9.57;;;19.70;99.90;;;;;;4995410;28;20096;-63
2022/06/17 07:50:18;;;;;;;11.95;10.50;;;19.80;99.90;;;;;;5015045;28;20038;-63
2022/06/17 07:52:44;;;;;;;10.45;9.35;;;19.90;99.90;;;;;;5001857;28;20118;-61
2022/06/17 07:55:10;;;;;;;11.98;9.70;;;20.00;99.90;;;;;;5006522;28;20484;-60
2022/06/17 07:57:36;;;;;;;12.50;9.80;;;20.00;99.90;;;;;;4995243;28;20052;-61
2022/06/17 08:00:05;;;;;;;13.80;9.90;;;20.10;99.90;;;;;;4989547;28;20058;-60
2022/06/17 08:02:31;;;;;;;12.85;9.52;;;20.20;99.90;;;;;;4999281;28;20050;-63
2022/06/17 08:04:57;;;;;;;11.38;9.82;;;20.20;99.90;;;;;;4985727;28;20334;-61
2022/06/17 08:07:23;;;;;;;17.35;9.88;;;20.30;99.90;;;;;;5002323;28;20504;-59
2022/06/17 08:09:48;;;;;;;12.07;9.18;;;20.40;99.90;;;;;;5000017;28;20038;-58
2022/06/17 08:12:14;;;;;;;15.50;9.70;;;20.50;99.90;;;;;;4997691;28;20455;-60
2022/06/17 08:14:43;;;;;;;11.23;9.65;;;20.60;99.90;;;;;;4994045;28;20133;-60
2022/06/17 08:17:12;;;;;;;12.00;9.13;;;20.80;99.90;;;;;;4991653;28;20050;-61
2022/06/17 08:19:38;;;;;;;11.88;10.48;;;20.90;99.90;;;;;;5004409;28;20044;-59
2022/06/17 08:22:04;;;;;;;13.75;9.38;;;21.00;99.90;;;;;;5001033;28;20492;-59
2022/06/17 08:24:30;;;;;;;15.57;9.93;;;21.00;99.90;;;;;;5003495;28;20049;-60
2022/06/17 08:26:56;;;;;;;10.65;9.10;;;21.10;99.90;;;;;;5008958;28;20074;-62
2022/06/17 08:29:22;;;;;;;12.82;9.00;;;21.20;99.90;;;;;;4983373;28;20481;-59
2022/06/17 08:31:48;;;;;;;10.02;8.25;;;21.20;99.90;;;;;;5007820;28;20467;-62
2022/06/17 08:34:14;;;;;;;11.88;8.02;;;21.30;99.90;;;;;;5007713;28;20061;-59
2022/06/17 08:36:40;;;;;;;9.43;8.38;;;21.30;99.90;;;;;;5008973;28;20315;-59
2022/06/17 08:39:09;;;;;;;9.45;8.45;;;21.30;99.90;;;;;;5007373;28;20452;-59
2022/06/17 08:42:00;;;;;;;12.93;9.30;;;21.40;99.90;;;;;;5006054;28;20048;-59
2022/06/17 08:44:51;;;;;;;12.20;8.15;;;21.40;99.90;;;;;;4999586;28;20049;-57
2022/06/17 08:47:31;;;;;;;9.45;8.45;;;21.50;99.90;;;;;;5001484;28;20100;-59
2022/06/17 08:50:06;;;;;;;10.18;8.18;;;21.60;99.90;;;;;;4999570;28;20087;-61
2022/06/17 08:53:07;;;;;;;10.95;7.38;;;21.70;99.90;;;;;;4998351;28;20074;-58
2022/06/17 08:55:40;;;;;;;9.38;7.63;;;21.70;99.60;;;;;;5006430;28;20073;-61
2022/06/17 08:58:50;;;;;;;13.15;7.82;;;21.70;99.40;;;;;;5008735;28;20355;-60
2022/06/17 09:01:30;;;;;;;11.15;7.13;;;21.70;99.40;;;;;;4966338;28;20074;-60
2022/06/17 09:04:06;;;;;;;7.72;6.55;;;21.70;99.60;;;;;;5006627;28;20034;-60
2022/06/17 09:06:50;;;;;;;9.65;8.05;;;21.80;99.80;;;;;;5005083;28;20108;-60
2022/06/17 09:09:24;;;;;;;10.90;7.35;;;21.80;99.80;;;;;;5002716;28;20050;-59
2022/06/17 09:11:50;;;;;;;8.50;7.32;;;21.80;99.60;;;;;;5004273;28;20057;-59
2022/06/17 09:14:43;;;;;;;10.18;7.78;;;21.80;99.70;;;;;;5002172;28;20052;-60
2022/06/17 09:17:33;;;;;;;11.50;7.85;;;21.90;99.50;;;;;;5003984;28;20531;-60
2022/06/17 09:20:03;;;;;;;11.57;7.38;;;22.00;99.70;;;;;;5001682;28;20121;-59
2022/06/17 09:22:34;;;;;;;9.30;8.15;;;22.10;99.80;;;;;;5003876;28;20038;-60
2022/06/17 09:25:07;;;;;;;10.02;7.28;;;22.30;99.70;;;;;;5002545;28;20100;-59
2022/06/17 09:27:40;;;;;;;11.63;7.25;;;22.40;99.60;;;;;;4989003;28;20053;-60
2022/06/17 09:30:15;;;;;;;9.18;6.70;;;22.60;99.60;;;;;;5002448;28;20042;-59
2022/06/17 09:33:02;;;;;;;10.02;6.90;;;22.80;99.30;;;;;;5000397;28;20046;-61
2022/06/17 09:35:39;;;;;;;12.27;8.07;;;22.90;98.40;;;;;;5007208;28;20041;-60
2022/06/17 09:38:11;;;;;;;8.32;6.80;;;22.90;98.10;;;;;;5004907;28;20034;-61
2022/06/17 09:40:44;;;;;;;11.20;6.57;;;23.00;98.40;;;;;;5008291;28;20437;-62
2022/06/17 09:43:34;;;;;;;8.02;6.78;;;23.00;97.90;;;;;;5022694;28;20049;-55
2022/06/17 09:46:41;;;;;;;9.32;6.68;;;23.10;98.10;;;;;;5008562;28;20048;-60
2022/06/17 09:49:12;;;;;;;11.07;7.30;;;23.20;97.50;;;;;;5009102;28;20081;-60
2022/06/17 09:51:47;;;;;;;7.60;6.80;;;23.30;97.70;;;;;;5010603;28;20464;-61
2022/06/17 09:54:26;;;;;;;10.20;7.03;;;23.30;97.70;;;;;;5009275;28;20042;-60
2022/06/17 09:57:01;;;;;;;8.88;7.07;;;23.40;97.70;;;;;;5025687;28;20504;-59
2022/06/17 09:59:35;;;;;;;8.98;6.55;;;23.50;97.70;;;;;;4996571;28;20065;-60
2022/06/17 10:02:30;;;;;;;9.73;6.32;;;23.50;97.50;;;;;;4994037;28;20038;-59
2022/06/17 10:04:58;;;;;;;7.25;6.15;;;23.60;97.10;;;;;;4999687;28;20505;-60
2022/06/17 10:07:35;;;;;;;10.98;6.00;;;23.80;97.00;;;;;;5013069;28;20061;-63
2022/06/17 10:10:28;;;;;;;10.07;5.80;;;23.90;97.20;;;;;;4997255;28;20029;-58
2022/06/17 10:13:19;;;;;;;10.52;5.90;;;24.10;97.30;;;;;;4993169;28;20034;-59
2022/06/17 10:19:07;;;;;;;12.52;5.60;;;24.30;96.70;;;;;;5004035;28;20049;-62
2022/06/17 10:21:55;;;;;;;7.40;5.30;;;24.20;96.00;;;;;;5002657;28;20733;-60
2022/06/17 10:24:26;;;;;;;7.47;5.18;;;24.30;96.10;;;;;;5003523;28;20491;-62
2022/06/17 10:27:20;;;;;;;12.82;5.05;;;24.30;95.60;;;;;;5003568;28;20038;-60
2022/06/17 10:29:45;;;;;;;;;;;24.30;93.90;;;;;;4997522;28;20033;-58
2022/06/17 10:32:11;;;;;;;5.43;4.55;;;24.30;93.70;;;;;;5000614;28;19932;-63
2022/06/17 10:34:51;;;;;;;5.53;4.18;;;24.30;94.40;;;;;;4994122;28;20052;-63
2022/06/17 10:37:20;;;;;;;9.60;5.20;;;24.30;94.60;;;;;;4992397;28;20053;-58
2022/06/17 10:39:47;;;;;;;9.05;4.75;;;24.50;94.90;;;;;;4999680;28;20077;-59
2022/06/17 10:42:19;;;;;;;8.55;5.53;;;24.60;94.30;;;;;;5003158;28;20444;-61
2022/06/17 10:44:49;;;;;;;7.35;5.00;;;24.70;94.00;;;;;;5001234;28;20045;-63
2022/06/17 10:47:42;;;;;;;9.30;5.18;;;24.80;93.90;;;;;;5001493;28;20041;-61
2022/06/17 10:50:22;;;;;;;7.23;4.03;;;24.90;94.00;;;;;;5006296;28;20489;-61
2022/06/17 10:53:15;;;;;;;6.20;4.20;;;25.00;92.50;;;;;;5008646;28;20092;-57
2022/06/17 10:55:46;;;;;;;8.90;4.43;;;24.90;91.20;;;;;;5005032;28;20064;-60
2022/06/17 10:58:17;;;;;;;6.03;4.18;;;24.90;91.80;;;;;;4998264;28;20393;-62
2022/06/17 11:01:00;;;;;;;7.57;4.07;;;24.80;91.30;;;;;;4997409;28;20045;-58
2022/06/17 11:03:30;;;;;;;8.13;4.35;;;24.80;91.30;;;;;;4997318;28;20049;-60
2022/06/17 11:06:17;;;;;;;8.15;4.10;;;24.80;91.40;;;;;;5003823;28;20041;-61
2022/06/17 11:08:49;;;;;;;6.35;3.60;;;24.80;91.10;;;;;;5016471;28;20042;-60
2022/06/17 11:14:04;;;;;;;7.47;3.80;;;24.90;91.50;;;;;;5001329;28;20049;-63
2022/06/17 11:16:40;;;;;;;7.85;3.92;;;25.10;90.70;;;;;;4998766;28;20155;-58
2022/06/17 11:19:12;;;;;;;6.57;3.45;;;25.30;90.30;;;;;;5002636;28;20045;-59
2022/06/17 11:21:45;;;;;;;6.78;3.90;;;25.40;90.10;;;;;;5004129;28;20041;-61
2022/06/17 11:24:40;;;;;;;8.75;4.30;;;25.50;88.40;;;;;;4982226;28;20408;-62
2022/06/17 11:27:24;;;;;;;8.05;3.90;;;25.50;85.90;;;;;;5003579;28;20145;-60
2022/06/17 11:29:51;;;;;;;;;;;25.60;88.70;;;;;;5000289;28;20796;-58
2022/06/17 11:32:20;;;;;;;6.93;3.97;;;25.70;86.70;;;;;;5000814;28;19963;-61
2022/06/17 11:35:20;;;;;;;8.07;3.83;;;25.70;87.60;;;;;;4988410;28;20448;-57
2022/06/17 11:37:48;;;;;;;6.10;3.28;;;25.80;83.10;;;;;;5005669;28;20077;-59
2022/06/17 11:40:23;;;;;;;9.35;4.05;;;26.00;86.40;;;;;;5006947;28;20485;-59
2022/06/17 11:42:53;;;;;;;6.50;3.28;;;26.30;83.90;;;;;;5003343;28;20070;-60
2022/06/17 11:45:31;;;;;;;7.05;3.70;;;26.40;81.10;;;;;;5001391;28;20099;-59
2022/06/17 11:48:09;;;;;;;6.63;3.42;;;26.60;80.30;;;;;;5002671;28;20468;-60
2022/06/17 11:50:37;;;;;;;5.90;3.28;;;26.80;79.40;;;;;;5003262;28;20635;-61
2022/06/17 11:53:12;;;;;;;8.57;3.80;;;27.00;80.00;;;;;;5002514;28;20030;-60
2022/06/17 11:55:45;;;;;;;4.47;3.30;;;27.30;80.10;;;;;;5002449;28;20259;-63
2022/06/17 11:58:12;;;;;;;7.18;3.58;;;27.40;79.20;;;;;;5019201;28;20513;-60
2022/06/17 12:00:51;;;;;;;5.05;3.17;;;27.50;77.80;;;;;;4997573;28;20046;-60
2022/06/17 12:03:39;;;;;;;8.13;3.72;;;27.70;75.40;;;;;;4997706;28;20049;-60
2022/06/17 12:06:17;;;;;;;5.10;3.28;;;27.70;71.90;;;;;;4999302;28;20104;-59
2022/06/17 12:09:09;;;;;;;6.50;3.00;;;27.70;73.20;;;;;;5000943;28;20130;-59
2022/06/17 12:11:46;;;;;;;6.22;3.28;;;27.80;72.00;;;;;;4998899;28;20055;-58
2022/06/17 12:14:20;;;;;;;5.35;2.85;;;27.80;68.90;;;;;;5001644;28;20042;-59
2022/06/17 12:16:47;;;;;;;5.38;2.90;;;27.90;70.80;;;;;;5003126;28;20270;-60
2022/06/17 12:19:22;;;;;;;4.47;2.95;;;28.00;70.30;;;;;;5001628;28;20081;-61
2022/06/17 12:21:53;;;;;;;8.00;3.15;;;28.00;68.70;;;;;;5000235;28;20038;-58
2022/06/17 12:24:30;;;;;;;4.90;3.10;;;27.90;66.90;;;;;;4998550;28;20246;-60
2022/06/17 12:27:01;;;;;;;6.13;3.30;;;28.00;66.40;;;;;;5006607;23;20049;-62
2022/06/17 12:29:49;;;;;;;3.92;2.92;;;27.90;65.70;;;;;;4985894;28;20054;-63
2022/06/17 12:32:22;;;;;;;6.03;3.67;;;28.00;66.60;;;;;;4987989;28;20046;-61
2022/06/17 12:35:15;;;;;;;5.60;3.05;;;28.00;66.40;;;;;;4981604;28;20073;-63
2022/06/17 12:37:49;;;;;;;7.18;3.13;;;27.80;64.70;;;;;;4981789;28;20636;-61
2022/06/17 12:40:39;;;;;;;6.53;3.30;;;27.80;65.70;;;;;;4992796;28;20046;-61
2022/06/17 12:43:23;;;;;;;6.45;2.90;;;27.70;64.30;;;;;;4992390;28;20444;-61
2022/06/17 12:45:59;;;;;;;;;;;27.60;65.70;;;;;;4995888;28;20046;-64
2022/06/17 12:48:50;;;;;;;6.07;2.85;;;27.40;64.10;;;;;;4991176;28;19956;-61
2022/06/17 12:54:29;;;;;;;5.88;3.25;;;27.30;66.90;;;;;;4991316;28;20042;-62
2022/06/17 12:57:02;;;;;;;5.53;3.38;;;27.30;66.90;;;;;;4992969;28;20070;-63
2022/06/17 12:59:57;;;;;;;6.38;3.60;;;27.30;67.20;;;;;;4997683;28;20092;-62
2022/06/17 13:02:41;;;;;;;9.73;4.03;;;27.20;66.20;;;;;;4969791;28;20065;-65
2022/06/17 13:05:26;;;;;;;6.65;3.95;;;27.00;66.30;;;;;;4984939;28;20074;-65
2022/06/17 13:08:02;;;;;;;5.63;3.60;;;27.10;67.50;;;;;;4965958;28;20057;-61
2022/06/17 13:10:40;;;;;;;4.57;3.38;;;27.10;67.10;;;;;;4978915;28;20073;-62
2022/06/17 13:13:13;;;;;;;6.95;3.03;;;27.30;67.00;;;;;;4985643;28;20046;-65
2022/06/17 13:15:50;;;;;;;6.80;3.15;;;27.30;67.60;;;;;;4997268;28;20049;-62
2022/06/17 13:18:55;;;;;;;10.43;3.70;;;27.30;68.10;;;;;;4977285;28;20041;-60
2022/06/17 13:21:54;;;;;;;7.65;3.78;;;27.30;67.60;;;;;;4990169;28;20387;-62
2022/06/17 13:24:43;;;;;;;16.52;4.10;;;27.40;66.50;;;;;;4992162;28;20392;-61
2022/06/17 13:27:22;;;;;;;7.78;3.60;;;27.40;68.30;;;;;;4986004;28;20726;-63